Time;durP1;ratioP1;P1;durP2;ratioP2;P2;SDS_P1;SDS_P2;PMS_P1;PMS_P2;Temp;Humidity;BMP_temperature;BMP_pressure;BME280_temperature;BME280_humidity;BME280_pressure;Samples;Min_cycle;Max_cycle;Signal;HPM_P1;HPM_P2
2022/04/26 03:36:52;;;;;;;20.63;9.57;;;;;;;9.15;100.00;98663.84;5146092;27;20124;-94
2022/04/26 03:39:18;;;;;;;20.92;9.30;;;;;;;9.14;100.00;98664.75;5130635;27;20040;-92
2022/04/26 03:41:44;;;;;;;20.90;9.30;;;;;;;9.11;100.00;98673.66;5130862;27;20431;-92
2022/04/26 03:44:09;;;;;;;24.30;9.68;;;;;;;9.05;100.00;98663.19;5130577;28;20072;-92
2022/04/26 03:46:35;;;;;;;17.98;9.60;;;;;;;9.04;100.00;98674.69;5130809;27;20039;-93
2022/04/26 03:49:01;;;;;;;27.05;10.65;;;;;;;8.93;100.00;98664.31;5130559;27;20052;-93
2022/04/26 03:51:27;;;;;;;24.40;10.10;;;;;;;8.90;100.00;98664.41;5130597;28;20126;-93
2022/04/26 03:53:54;;;;;;;24.13;11.18;;;;;;;8.81;100.00;98654.00;5130693;27;20126;-92
2022/04/26 03:56:20;;;;;;;26.48;11.15;;;;;;;8.94;100.00;98678.47;5128675;28;21051;-93
2022/04/26 03:58:45;;;;;;;24.50;10.68;;;;;;;8.82;100.00;98663.69;5130573;27;20043;-92
2022/04/26 04:01:11;;;;;;;26.50;12.00;;;;;;;8.90;100.00;98669.69;5130174;27;20104;-92
2022/04/26 04:03:38;;;;;;;27.42;10.50;;;;;;;8.92;100.00;98670.53;5130375;27;20130;-91
2022/04/26 04:06:04;;;;;;;31.52;11.20;;;;;;;8.92;100.00;98667.03;5130425;27;20126;-92
2022/04/26 04:08:30;;;;;;;27.58;11.80;;;;;;;8.96;100.00;98681.97;5130213;27;20039;-93
2022/04/26 04:10:57;;;;;;;30.45;12.68;;;;;;;9.01;100.00;98680.94;5130058;27;20039;-95
2022/04/26 04:13:23;;;;;;;28.90;11.68;;;;;;;8.93;100.00;98680.22;5129903;27;20050;-94
2022/04/26 04:15:49;;;;;;;32.10;12.13;;;;;;;9.01;100.00;98677.44;5129874;28;20031;-93
2022/04/26 04:21:14;;;;;;;23.95;11.95;;;;;;;9.03;100.00;98699.50;5138784;27;20130;-92
2022/04/26 04:23:40;;;;;;;27.80;11.77;;;;;;;9.10;100.00;98700.22;5101431;28;20051;-91
2022/04/26 04:26:07;;;;;;;24.45;10.82;;;;;;;9.12;100.00;98704.59;5110530;28;20055;-92
2022/04/26 04:28:33;;;;;;;24.08;10.32;;;;;;;8.92;100.00;98685.59;5110360;28;20036;-93
2022/04/26 04:30:59;;;;;;;23.05;10.10;;;;;;;9.04;100.00;98695.91;5109805;28;20044;-91
2022/04/26 04:33:25;;;;;;;29.17;9.98;;;;;;;9.07;100.00;98693.22;5109858;28;20043;-93
2022/04/26 04:35:51;;;;;;;22.13;10.40;;;;;;;9.18;100.00;98708.88;5109830;28;20047;-93
2022/04/26 04:38:18;;;;;;;30.52;10.75;;;;;;;9.27;100.00;98703.38;5109519;28;20040;-91
2022/04/26 04:40:44;;;;;;;20.23;9.50;;;;;;;9.15;100.00;98685.97;5109875;28;20106;-91
2022/04/26 04:43:10;;;;;;;20.42;9.32;;;;;;;9.30;100.00;98697.97;5108891;28;20044;-92
2022/04/26 04:45:36;;;;;;;25.75;9.70;;;;;;;9.29;100.00;98701.56;5108447;28;20114;-94
2022/04/26 04:48:05;;;;;;;24.58;10.85;;;;;;;9.37;100.00;98701.38;5109562;28;20070;-92
2022/04/26 04:50:32;;;;;;;23.67;12.18;;;;;;;9.41;100.00;98698.63;5105659;28;20066;-92
2022/04/26 04:52:57;;;;;;;25.77;11.73;;;;;;;9.47;100.00;98705.56;5109546;28;20059;-92
2022/04/26 04:55:25;;;;;;;19.00;10.02;;;;;;;9.50;100.00;98710.81;5108442;28;20505;-93
2022/04/26 04:57:51;;;;;;;20.42;9.63;;;;;;;9.52;100.00;98705.44;5109459;28;20036;-91
2022/04/26 05:00:17;;;;;;;22.42;9.60;;;;;;;9.41;100.00;98690.66;5109265;28;20039;-93
2022/04/26 05:02:43;;;;;;;26.17;10.23;;;;;;;9.53;100.00;98704.53;5109829;28;20039;-92
2022/04/26 05:05:09;;;;;;;24.65;10.15;;;;;;;9.59;100.00;98712.38;5109595;28;20044;-93
2022/04/26 05:07:36;;;;;;;22.05;9.82;;;;;;;9.52;100.00;98689.50;5109514;28;20048;-93
2022/04/26 05:10:02;;;;;;;21.30;9.95;;;;;;;9.72;100.00;98716.47;5109417;28;20078;-90
2022/04/26 05:12:29;;;;;;;25.05;10.52;;;;;;;9.66;100.00;98690.06;5108916;28;20509;-92
2022/04/26 05:14:55;;;;;;;22.63;10.85;;;;;;;9.81;100.00;98712.72;5110441;28;20048;-93
2022/04/26 05:17:21;;;;;;;19.20;10.18;;;;;;;9.95;100.00;98728.28;5108428;28;20123;-91
2022/04/26 05:19:47;;;;;;;23.48;11.57;;;;;;;9.83;100.00;98703.78;5110131;28;20581;-92
2022/04/26 05:22:14;;;;;;;30.05;13.50;;;;;;;9.95;100.00;98712.34;5108180;28;20047;-92
2022/04/26 05:27:38;;;;;;;39.78;16.35;;;;;;;10.30;100.00;98719.47;5146308;27;20127;-92
2022/04/26 05:30:05;;;;;;;40.53;16.55;;;;;;;10.58;100.00;98716.03;5130181;28;20097;-94
2022/04/26 05:32:31;;;;;;;46.13;16.88;;;;;;;10.87;100.00;98728.50;5130804;27;20054;-91
2022/04/26 05:34:58;;;;;;;44.20;17.95;;;;;;;11.01;100.00;98710.31;5130152;27;20043;-91
2022/04/26 05:37:24;;;;;;;39.60;17.88;;;;;;;11.26;100.00;98722.91;5130805;27;20036;-94
2022/04/26 05:39:49;;;;;;;40.83;15.82;;;;;;;11.33;100.00;98703.16;5130317;27;20047;-92
2022/04/26 05:42:15;;;;;;;37.63;16.27;;;;;;;11.45;100.00;98707.22;5131706;27;20039;-94
2022/04/26 05:44:42;;;;;;;45.70;16.15;;;;;;;11.67;100.00;98713.63;5130351;27;20039;-93
2022/04/26 05:47:11;;;;;;;37.33;16.58;;;;;;;11.62;100.00;98699.56;5129826;27;20048;-94
2022/04/26 05:49:37;;;;;;;32.20;13.65;;;;;;;11.84;100.00;98714.84;5132988;28;20046;-93
2022/04/26 05:52:04;;;;;;;28.25;13.10;;;;;;;12.00;99.02;98726.78;5132633;27;20035;-89
2022/04/26 05:54:30;;;;;;;25.58;11.68;;;;;;;12.19;97.03;98734.13;5131786;27;20036;-93
2022/04/26 05:56:56;;;;;;;22.85;11.57;;;;;;;12.29;96.86;98720.44;5131016;27;20039;-93
2022/04/26 05:59:23;;;;;;;33.85;13.82;;;;;;;12.37;95.46;98714.84;5130907;27;20133;-94
2022/04/26 06:01:51;;;;;;;30.45;12.75;;;;;;;12.48;94.34;98712.66;5130627;27;20040;-91
2022/04/26 06:04:17;;;;;;;27.15;12.63;;;;;;;12.60;93.62;98705.16;5130380;27;20492;-94
2022/04/26 06:06:43;;;;;;;28.27;13.30;;;;;;;12.89;92.60;98723.63;5130402;27;20038;-92
2022/04/26 06:09:09;;;;;;;32.55;13.45;;;;;;;13.00;91.63;98717.91;5130692;27;20105;-92
2022/04/26 06:11:35;;;;;;;26.85;13.20;;;;;;;13.05;90.63;98707.91;5130332;27;20400;-91
2022/04/26 06:14:02;;;;;;;30.67;12.32;;;;;;;13.14;89.72;98720.03;5131484;27;20039;-94
2022/04/26 06:16:28;;;;;;;26.90;12.90;;;;;;;13.07;88.62;98702.50;5131422;27;20043;-93
2022/04/26 06:18:55;;;;;;;30.77;11.82;;;;;;;13.34;90.11;98733.53;5131065;27;20042;-93
2022/04/26 06:21:21;;;;;;;25.85;11.52;;;;;;;13.54;89.26;98729.22;5130415;27;20044;-91
2022/04/26 06:23:47;;;;;;;31.15;12.52;;;;;;;13.51;86.63;98706.16;5130538;27;20066;-93
2022/04/26 06:26:13;;;;;;;26.23;12.85;;;;;;;13.65;86.82;98716.28;5130223;27;20071;-94
2022/04/26 06:28:39;;;;;;;33.60;13.70;;;;;;;13.79;87.10;98715.72;5125935;27;20043;-93
2022/04/26 06:31:05;;;;;;;31.27;11.90;;;;;;;13.86;85.93;98719.88;5129699;27;20042;-95
2022/04/26 06:33:31;;;;;;;31.85;11.90;;;;;;;14.00;85.11;98724.66;5130221;27;20040;-92
2022/04/26 06:35:58;;;;;;;25.63;11.82;;;;;;;14.00;84.45;98705.94;5129810;27;20080;-92
2022/04/26 06:38:25;;;;;;;31.80;13.38;;;;;;;14.09;83.54;98697.50;5118839;27;20043;-93
2022/04/26 06:40:51;;;;;;;31.75;13.18;;;;;;;14.26;83.68;98714.66;5115710;28;20071;-94
2022/04/26 06:43:17;;;;;;;30.45;11.90;;;;;;;14.37;81.94;98713.25;5115453;28;20055;-92
2022/04/26 06:45:46;;;;;;;27.35;12.63;;;;;;;14.48;81.40;98707.44;5116175;28;20396;-93
2022/04/26 06:48:13;;;;;;;29.67;11.60;;;;;;;14.69;79.51;98721.72;5115961;28;20035;-91
2022/04/26 06:50:39;;;;;;;19.92;10.10;;;;;;;14.46;76.62;98711.97;5116010;28;20036;-93
2022/04/26 06:53:07;;;;;;;25.52;10.82;;;;;;;14.38;80.18;98704.31;5115392;28;20085;-92
2022/04/26 06:55:33;;;;;;;27.02;12.30;;;;;;;14.51;80.16;98707.31;5115445;28;20071;-91
2022/04/26 06:57:59;;;;;;;25.58;11.88;;;;;;;14.54;80.93;98701.81;5115864;28;20147;-92
2022/04/26 07:00:25;;;;;;;28.75;13.13;;;;;;;14.79;79.56;98714.16;5115371;28;20050;-91
2022/04/26 07:02:51;;;;;;;23.70;12.05;;;;;;;14.88;78.53;98686.09;5115433;28;20116;-92
2022/04/26 07:05:17;;;;;;;22.58;11.10;;;;;;;15.16;77.16;98712.47;5115948;28;20066;-93
2022/04/26 07:07:43;;;;;;;33.90;12.88;;;;;;;15.15;75.00;98700.84;5115623;28;20471;-92
2022/04/26 07:10:10;;;;;;;25.23;11.00;;;;;;;15.33;73.58;98709.84;5115482;28;20173;-93
2022/04/26 07:12:36;;;;;;;27.88;12.18;;;;;;;15.31;73.50;98701.03;5115482;28;20461;-94
2022/04/26 07:15:03;;;;;;;21.60;10.10;;;;;;;15.38;74.01;98712.31;5116063;28;20032;-95
2022/04/26 07:17:29;;;;;;;21.80;9.82;;;;;;;15.54;73.08;98715.13;5115373;28;20586;-94
2022/04/26 07:19:57;;;;;;;24.40;9.18;;;;;;;15.55;72.86;98706.16;5115223;28;20042;-93
2022/04/26 07:22:23;;;;;;;24.90;10.20;;;;;;;15.66;72.02;98710.97;5114771;28;20047;-93
2022/04/26 07:24:49;;;;;;;19.60;9.13;;;;;;;15.66;72.09;98693.09;5114963;28;20040;-92
2022/04/26 07:27:16;;;;;;;21.40;9.82;;;;;;;15.86;70.55;98712.72;5114846;28;20039;-94
2022/04/26 07:29:43;;;;;;;21.48;8.65;;;;;;;15.97;71.05;98710.38;5115841;28;20039;-92
2022/04/26 07:32:09;;;;;;;14.90;8.63;;;;;;;16.09;69.80;98703.50;5114661;27;20488;-93
2022/04/26 07:34:35;;;;;;;17.10;8.20;;;;;;;16.20;67.77;98712.75;5115369;28;20050;-93
2022/04/26 07:37:02;;;;;;;19.50;9.13;;;;;;;16.10;68.19;98716.84;5115384;28;20040;-93
2022/04/26 07:39:29;;;;;;;17.48;9.52;;;;;;;16.10;68.91;98706.13;5115209;28;20042;-93
2022/04/26 07:41:55;;;;;;;16.55;8.27;;;;;;;16.17;68.16;98726.31;5114915;28;20051;-94
2022/04/26 07:44:22;;;;;;;20.63;8.13;;;;;;;16.29;67.53;98719.47;5115712;27;20039;-94
2022/04/26 07:46:50;;;;;;;18.45;7.72;;;;;;;16.01;67.32;98706.59;5116210;28;20042;-92
2022/04/26 07:49:19;;;;;;;14.98;7.25;;;;;;;16.14;66.80;98702.34;5114235;27;20899;-94
2022/04/26 07:51:45;;;;;;;14.00;7.07;;;;;;;16.44;67.30;98712.47;5114634;28;20036;-91
2022/04/26 07:54:11;;;;;;;14.60;7.75;;;;;;;16.28;65.20;98714.19;5114804;28;20035;-94
2022/04/26 07:56:37;;;;;;;16.77;7.68;;;;;;;16.34;66.22;98705.81;5113852;28;20093;-92
2022/04/26 07:59:04;;;;;;;18.50;8.00;;;;;;;16.60;65.72;98710.69;5114990;28;20035;-91
2022/04/26 08:01:31;;;;;;;16.83;7.78;;;;;;;16.56;65.30;98706.44;5115629;28;20044;-93
2022/04/26 08:03:57;;;;;;;14.45;7.30;;;;;;;16.40;66.36;98694.78;5114949;28;20116;-93
2022/04/26 08:06:23;;;;;;;16.17;8.32;;;;;;;16.67;67.13;98718.41;5114560;28;20059;-92
2022/04/26 08:08:49;;;;;;;25.48;9.82;;;;;;;16.34;65.98;98697.78;5114404;28;20031;-92
2022/04/26 08:11:15;;;;;;;16.73;7.60;;;;;;;16.79;65.83;98717.78;5114631;28;20036;-92
2022/04/26 08:13:42;;;;;;;18.55;8.27;;;;;;;17.09;65.66;98727.84;5114804;28;20043;-93
2022/04/26 08:16:08;;;;;;;17.02;9.05;;;;;;;16.32;64.66;98710.41;5114135;28;20119;-92
2022/04/26 08:18:35;;;;;;;16.00;7.88;;;;;;;16.26;65.54;98727.66;5114543;28;20493;-94
2022/04/26 08:21:02;;;;;;;15.18;8.40;;;;;;;16.29;67.53;98703.38;5112603;28;20042;-92
2022/04/26 08:23:28;;;;;;;16.40;7.72;;;;;;;16.74;65.42;98714.47;5114495;28;20074;-91
2022/04/26 08:28:52;;;;;;;15.63;7.68;;;;;;;17.06;64.44;98704.69;5147644;27;20540;-92
2022/04/26 08:31:18;;;;;;;19.67;7.55;;;;;;;16.60;65.12;98701.78;5131440;27;20150;-93
2022/04/26 08:33:43;;;;;;;16.92;7.57;;;;;;;16.64;65.20;98698.84;5132117;27;20059;-92
2022/04/26 08:36:09;;;;;;;15.38;7.45;;;;;;;17.02;62.50;98689.69;5131567;27;20035;-93
2022/04/26 08:38:35;;;;;;;12.70;6.25;;;;;;;16.98;60.89;98686.34;5131777;27;20041;-94
2022/04/26 08:41:01;;;;;;;12.85;6.15;;;;;;;17.39;61.76;98703.78;5131438;27;20036;-93
2022/04/26 08:43:33;;;;;;;12.43;6.00;;;;;;;17.57;59.77;98699.22;5132621;27;20143;-93
2022/04/26 08:46:02;;;;;;;10.07;5.15;;;;;;;17.70;58.13;98685.94;5130977;28;20043;-93
2022/04/26 08:51:28;;;;;;;9.48;4.75;;;;;;;17.95;56.85;98698.84;5137807;27;20161;-90
2022/04/26 08:53:54;;;;;;;13.52;5.25;;;;;;;18.23;56.32;98706.16;5105932;28;20047;-93
2022/04/26 08:56:20;;;;;;;11.00;5.43;;;;;;;18.22;55.28;98678.38;5111524;28;20036;-93
2022/04/26 08:58:47;;;;;;;11.50;5.70;;;;;;;18.49;55.38;98696.53;5111023;28;20036;-92
2022/04/26 09:01:16;;;;;;;11.93;5.72;;;;;;;18.51;55.30;98688.34;5111832;28;20039;-94
2022/04/26 09:03:54;;;;;;;;;;;;;;;18.64;55.58;98700.97;5110036;28;20040;-92
2022/04/26 09:06:21;;;;;;;11.85;6.43;;;;;;;18.80;56.43;98674.00;5111274;28;20035;-90
2022/04/26 09:08:48;;;;;;;15.30;6.15;;;;;;;18.62;56.83;98665.19;5111268;28;20119;-93
2022/04/26 09:11:24;;;;;;;14.63;6.30;;;;;;;18.96;54.87;98687.38;5110993;28;20071;-92
2022/04/26 09:13:51;;;;;;;15.13;6.47;;;;;;;19.08;53.87;98666.84;5110976;28;20036;-92
2022/04/26 09:16:18;;;;;;;11.70;5.60;;;;;;;18.23;55.05;98665.78;5108932;28;21015;-93
2022/04/26 09:18:53;;;;;;;13.40;6.05;;;;;;;18.42;55.81;98690.66;5107333;28;20481;-92
2022/04/26 09:21:19;;;;;;;14.40;5.70;;;;;;;17.89;55.08;98664.22;5109589;28;20038;-91
2022/04/26 09:23:47;;;;;;;11.55;6.35;;;;;;;18.42;56.28;98684.41;5110344;28;20040;-94
2022/04/26 09:26:16;;;;;;;8.15;5.20;;;;;;;18.49;55.19;98666.91;5110352;28;20498;-91
2022/04/26 09:28:43;;;;;;;14.02;5.57;;;;;;;18.98;52.25;98682.75;5110690;28;20044;-93
2022/04/26 09:31:20;;;;;;;9.90;5.05;;;;;;;19.29;51.58;98675.41;5110306;28;20489;-94
2022/04/26 09:33:49;;;;;;;11.07;4.97;;;;;;;18.76;54.28;98687.69;5110418;28;21240;-92
2022/04/26 09:36:18;;;;;;;10.57;5.00;;;;;;;19.13;52.96;98685.44;5111253;28;20048;-93
2022/04/26 09:38:49;;;;;;;10.00;4.93;;;;;;;19.27;51.99;98672.81;5110745;28;20043;-91
2022/04/26 09:41:16;;;;;;;9.65;4.75;;;;;;;19.50;50.61;98665.94;5110724;28;20051;-93
2022/04/26 09:43:42;;;;;;;11.40;5.00;;;;;;;19.68;50.95;98668.38;5108871;28;20044;-90
2022/04/26 09:46:08;;;;;;;7.95;4.20;;;;;;;19.55;49.69;98686.34;5109749;28;20089;-92
2022/04/26 09:48:36;;;;;;;9.30;5.00;;;;;;;19.16;50.12;98669.06;5110704;28;20043;-93
2022/04/26 09:51:03;;;;;;;9.60;4.82;;;;;;;19.60;50.60;98681.50;5109687;28;20107;-92
2022/04/26 09:53:29;;;;;;;8.60;4.97;;;;;;;19.19;50.42;98668.88;5109919;28;20119;-91
2022/04/26 09:55:56;;;;;;;11.98;5.10;;;;;;;19.34;50.96;98667.03;5109945;28;20043;-93
2022/04/26 09:58:26;;;;;;;9.85;4.90;;;;;;;19.41;51.20;98661.16;5621130;22;20277;-91
2022/04/26 10:00:56;;;;;;;10.52;5.25;;;;;;;19.75;51.26;98675.13;5122375;28;20040;-92
2022/04/26 10:03:25;;;;;;;10.88;5.53;;;;;;;19.07;50.49;98676.78;5112985;28;20413;-91
2022/04/26 10:05:56;;;;;;;11.40;5.00;;;;;;;19.29;50.63;98672.72;5110467;28;20430;-90
2022/04/26 10:08:23;;;;;;;9.80;4.50;;;;;;;19.72;50.70;98671.78;5105530;28;20076;-93
2022/04/26 10:10:49;;;;;;;9.60;4.93;;;;;;;19.69;50.09;98664.72;5104239;28;20032;-92
2022/04/26 10:16:21;;;;;;;12.13;4.80;;;;;;;20.51;49.41;98660.09;5124008;27;20848;-94
2022/04/26 10:18:48;;;;;;;9.63;4.75;;;;;;;20.97;47.24;98665.00;5089661;28;20440;-91
2022/04/26 10:21:46;;;;;;;8.23;4.28;;;;;;;21.07;44.91;98655.25;5089764;28;20383;-93
2022/04/26 10:24:22;;;;;;;7.18;4.10;;;;;;;21.12;45.55;98653.09;5088123;28;20082;-93
2022/04/26 10:26:49;;;;;;;7.28;4.10;;;;;;;20.17;47.26;98646.25;5089968;28;20450;-93
2022/04/26 10:29:23;;;;;;;7.18;4.13;;;;;;;20.29;46.45;98658.88;5090167;28;20032;-92
2022/04/26 10:31:58;;;;;;;10.52;4.30;;;;;;;20.85;47.14;98644.25;5089299;28;20044;-92
2022/04/26 10:34:28;;;;;;;7.78;4.45;;;;;;;21.15;46.43;98646.59;5088371;28;20035;-93
2022/04/26 10:36:56;;;;;;;8.07;4.13;;;;;;;21.33;44.58;98631.72;5090179;28;20040;-93
2022/04/26 10:39:35;;;;;;;8.35;4.20;;;;;;;21.42;44.30;98640.16;5089683;28;20033;-92
2022/04/26 10:42:03;;;;;;;7.45;4.28;;;;;;;21.28;45.99;98639.31;5090063;28;20040;-94
2022/04/26 10:44:42;;;;;;;5.95;3.97;;;;;;;20.44;44.58;98638.06;5090736;28;20378;-93
2022/04/26 10:47:36;;;;;;;9.90;4.25;;;;;;;20.57;46.60;98642.59;5085461;28;20040;-93
2022/04/26 10:50:06;;;;;;;9.52;4.15;;;;;;;20.58;46.95;98639.84;5089324;28;20040;-95
2022/04/26 10:52:37;;;;;;;8.30;4.60;;;;;;;20.53;46.52;98628.44;5089919;28;20833;-91
2022/04/26 10:55:05;;;;;;;9.38;4.30;;;;;;;20.51;48.12;98633.09;5092826;28;20044;-93
2022/04/26 10:57:33;;;;;;;;;;;;;;;20.26;47.88;98650.16;5090010;28;20060;-93
2022/04/26 11:00:00;;;;;;;14.20;7.03;;;;;;;19.72;47.23;98650.22;5090137;28;19956;-94
2022/04/26 11:02:28;;;;;;;7.13;4.32;;;;;;;19.89;47.79;98637.31;5089441;28;20127;-92
2022/04/26 11:05:01;;;;;;;7.78;4.13;;;;;;;20.17;46.68;98642.66;5088595;28;20044;-93
2022/04/26 11:07:29;;;;;;;9.05;3.92;;;;;;;20.27;46.02;98631.13;5089797;28;20040;-94
2022/04/26 11:09:57;;;;;;;6.90;3.87;;;;;;;19.88;46.59;98637.41;5089027;28;20032;-92
2022/04/26 11:12:24;;;;;;;6.75;4.13;;;;;;;20.29;44.93;98614.81;5089305;28;20068;-92
2022/04/26 11:14:52;;;;;;;9.82;4.60;;;;;;;20.74;44.72;98631.50;5089225;28;20567;-92
2022/04/26 11:17:21;;;;;;;8.03;3.90;;;;;;;21.15;44.19;98637.63;5088331;28;20032;-93
2022/04/26 11:19:48;;;;;;;;;;;;;;;20.99;43.92;98636.03;5089626;28;20397;-94
2022/04/26 11:22:17;;;;;;;9.07;4.00;;;;;;;20.97;43.71;98616.34;5089433;28;20284;-93
2022/04/26 11:30:43;;;;;;;7.40;4.15;;;;;;;20.68;43.92;98607.63;5147327;27;20155;-93
2022/04/26 11:33:11;;;;;;;6.80;3.90;;;;;;;20.19;46.45;98605.63;5128770;28;20047;-93
2022/04/26 11:35:38;;;;;;;7.85;3.50;;;;;;;19.71;46.66;98595.38;5131322;27;20035;-91
2022/04/26 11:38:08;;;;;;;8.27;3.53;;;;;;;19.59;48.16;98615.06;5131938;27;20119;-90
2022/04/26 11:40:37;;;;;;;5.45;3.47;;;;;;;19.61;49.03;98589.69;5131142;27;20039;-92
2022/04/26 11:43:06;;;;;;;;;;;;;;;20.03;46.82;98617.47;5131583;27;20128;-91
2022/04/26 11:45:34;;;;;;;6.88;3.53;;;;;;;20.26;45.45;98594.28;5131153;27;19951;-91
2022/04/26 11:48:01;;;;;;;7.35;4.00;;;;;;;20.33;45.38;98607.38;5128245;28;20051;-91
2022/04/26 11:50:29;;;;;;;7.60;3.63;;;;;;;19.94;46.59;98591.13;5129904;28;20042;-93
2022/04/26 11:53:00;;;;;;;8.73;3.67;;;;;;;20.48;43.63;98590.94;5131338;27;20044;-92
2022/04/26 11:55:28;;;;;;;8.23;3.92;;;;;;;20.70;43.84;98586.75;5129864;28;20047;-94
2022/04/26 11:58:05;;;;;;;10.68;3.90;;;;;;;20.68;43.78;98604.91;5130587;27;20043;-92
2022/04/26 12:00:31;;;;;;;7.53;3.72;;;;;;;20.91;42.65;98604.13;5129577;28;20040;-93
2022/04/26 12:02:57;;;;;;;9.00;4.13;;;;;;;20.84;42.59;98583.94;5131311;27;20100;-91
2022/04/26 12:05:25;;;;;;;7.20;3.92;;;;;;;20.87;43.63;98590.97;5130884;27;20031;-91
2022/04/26 12:07:51;;;;;;;10.32;4.10;;;;;;;20.71;43.40;98593.91;5128342;28;20031;-92
2022/04/26 12:10:27;;;;;;;7.75;3.90;;;;;;;20.85;43.52;98595.59;5129776;28;20506;-92
2022/04/26 12:12:55;;;;;;;8.45;3.80;;;;;;;21.43;43.26;98591.38;5131798;27;20051;-92
2022/04/26 12:15:24;;;;;;;6.40;4.00;;;;;;;21.86;41.56;98590.84;5129014;28;20065;-92
2022/04/26 12:18:00;;;;;;;;;;;;;;;21.69;42.15;98584.00;5132113;27;20043;-92
2022/04/26 12:20:28;;;;;;;6.45;3.53;;;;;;;21.40;41.77;98569.06;5126538;28;20413;-93
2022/04/26 12:22:54;;;;;;;6.00;3.40;;;;;;;21.32;41.23;98573.19;5131787;27;20072;-93
2022/04/26 12:25:20;;;;;;;8.80;3.58;;;;;;;20.90;41.83;98552.88;5128469;27;20045;-93
2022/04/26 12:28:05;;;;;;;8.15;3.92;;;;;;;20.58;41.80;98575.00;5131419;27;20043;-89
2022/04/26 12:30:31;;;;;;;9.90;3.60;;;;;;;20.29;42.17;98580.56;5125768;28;20043;-92
2022/04/26 12:32:57;;;;;;;12.65;4.95;;;;;;;19.94;43.03;98574.91;5130564;27;20032;-92
2022/04/26 12:35:24;;;;;;;8.63;4.05;;;;;;;19.86;42.80;98564.66;5129604;28;20133;-93
2022/04/26 12:38:07;;;;;;;7.07;4.00;;;;;;;19.79;43.80;98557.94;5129551;27;20092;-91
2022/04/26 12:40:34;;;;;;;9.48;3.92;;;;;;;19.82;44.10;98559.56;5121190;28;20063;-91
2022/04/26 12:43:00;;;;;;;8.30;3.50;;;;;;;20.03;43.31;98551.84;5117035;28;21001;-90
2022/04/26 12:45:26;;;;;;;8.63;3.88;;;;;;;20.80;42.06;98536.50;5116838;27;20629;-91
2022/04/26 12:51:17;;;;;;;5.78;3.25;;;;;;;21.30;39.41;98531.03;5135226;27;20519;-91
2022/04/26 12:53:45;;;;;;;11.23;3.35;;;;;;;20.97;40.26;98526.25;5110172;28;20062;-90
2022/04/26 12:56:14;;;;;;;5.22;3.55;;;;;;;21.03;41.24;98532.06;5111623;28;20036;-90
2022/04/26 12:58:41;;;;;;;8.73;3.47;;;;;;;21.36;39.76;98513.47;5106930;28;20044;-92
2022/04/26 13:01:08;;;;;;;9.10;4.50;;;;;;;20.99;40.32;98519.78;5109598;28;20397;-92
2022/04/26 13:03:34;;;;;;;7.65;3.42;;;;;;;20.90;40.34;98520.44;5110882;28;20502;-93
2022/04/26 13:06:09;;;;;;;5.30;3.10;;;;;;;21.49;40.23;98526.00;5110143;28;20103;-91
2022/04/26 13:08:37;;;;;;;6.93;3.25;;;;;;;21.73;39.68;98492.63;5110804;28;20040;-92
2022/04/26 13:11:04;;;;;;;3.90;2.90;;;;;;;22.18;40.06;98513.50;5110909;28;20100;-92
2022/04/26 13:13:30;;;;;;;5.53;3.13;;;;;;;22.36;38.28;98522.94;5109894;28;20043;-93
2022/04/26 13:15:56;;;;;;;9.38;3.55;;;;;;;21.89;37.40;98509.38;5111185;28;20051;-93
2022/04/26 13:18:22;;;;;;;7.18;3.47;;;;;;;21.72;37.95;98501.72;5110868;28;20093;-92
2022/04/26 13:20:48;;;;;;;5.65;2.90;;;;;;;21.78;37.25;98501.25;5111634;28;20036;-93
2022/04/26 13:23:16;;;;;;;4.97;2.72;;;;;;;21.62;37.86;98515.09;5111008;28;20052;-92
2022/04/26 13:25:43;;;;;;;6.22;3.25;;;;;;;21.54;37.58;98485.91;5111993;28;20040;-92
2022/04/26 13:28:10;;;;;;;4.80;3.10;;;;;;;21.42;40.40;98491.38;5111021;28;20036;-91
2022/04/26 13:30:38;;;;;;;8.15;3.42;;;;;;;21.59;39.51;98501.78;5111458;28;20032;-91
2022/04/26 13:33:04;;;;;;;10.95;3.75;;;;;;;22.08;38.61;98497.13;5110561;28;20137;-90
2022/04/26 13:35:30;;;;;;;7.60;3.10;;;;;;;22.34;37.83;98487.81;5110736;28;20039;-94
2022/04/26 13:37:58;;;;;;;8.15;3.72;;;;;;;22.50;35.02;98484.72;5111091;28;20061;-92
2022/04/26 13:40:24;;;;;;;7.67;3.50;;;;;;;22.55;34.68;98489.78;5109766;28;20538;-91
2022/04/26 13:42:51;;;;;;;6.40;3.30;;;;;;;21.79;36.27;98478.59;5110351;28;20371;-92
2022/04/26 13:45:17;;;;;;;8.57;4.20;;;;;;;21.87;35.11;98488.84;5110056;28;20043;-91
2022/04/26 13:47:45;;;;;;;7.25;3.28;;;;;;;22.17;36.80;98493.69;5110097;28;20066;-90
2022/04/26 13:50:11;;;;;;;6.25;3.25;;;;;;;22.49;37.34;98490.28;5109690;28;20077;-92
2022/04/26 13:52:38;;;;;;;5.47;3.28;;;;;;;22.05;36.35;98478.41;5109592;28;20517;-90
2022/04/26 13:55:05;;;;;;;6.28;3.45;;;;;;;22.62;36.25;98488.31;5110330;28;20551;-95
2022/04/26 13:57:30;;;;;;;6.90;3.13;;;;;;;22.74;35.28;98481.88;5111020;28;20066;-91
2022/04/26 13:59:58;;;;;;;7.10;3.38;;;;;;;22.51;36.48;98491.00;5109933;28;20492;-91
2022/04/26 14:02:24;;;;;;;6.25;3.45;;;;;;;22.18;35.51;98484.56;5096237;28;20157;-93
2022/04/26 14:04:50;;;;;;;10.25;4.50;;;;;;;21.85;37.36;98488.94;5097010;28;20039;-92
2022/04/26 14:07:17;;;;;;;10.77;4.90;;;;;;;21.56;37.23;98484.91;5096307;28;20040;-93
2022/04/26 14:09:43;;;;;;;9.48;4.50;;;;;;;21.37;37.26;98493.56;5095905;28;20152;-93
2022/04/26 14:12:09;;;;;;;7.30;3.47;;;;;;;21.34;37.17;98481.13;5096279;28;20048;-91
2022/04/26 14:23:32;;;;;;;7.55;3.10;;;;;;;22.04;37.01;98480.25;5144624;27;20156;-91
2022/04/26 14:25:58;;;;;;;6.47;2.90;;;;;;;22.29;36.54;98481.03;5109020;28;20040;-94
2022/04/26 14:28:24;;;;;;;5.07;3.00;;;;;;;22.32;36.30;98468.13;5112959;28;20133;-92
2022/04/26 14:30:49;;;;;;;5.47;2.80;;;;;;;22.04;35.95;98474.84;5112845;28;20032;-92
2022/04/26 14:33:15;;;;;;;7.05;2.95;;;;;;;22.05;35.84;98472.97;5112751;28;20040;-91
2022/04/26 14:35:41;;;;;;;9.52;3.20;;;;;;;22.25;37.55;98469.59;5111239;28;20036;-91
2022/04/26 14:38:07;;;;;;;4.22;2.58;;;;;;;22.35;34.57;98472.41;5111747;28;20044;-91
2022/04/26 14:40:35;;;;;;;4.55;2.78;;;;;;;22.34;36.11;98490.53;5106755;28;20357;-93
2022/04/26 14:43:00;;;;;;;5.00;2.80;;;;;;;22.11;36.48;98470.66;5111913;28;20036;-90
2022/04/26 14:45:32;;;;;;;7.00;2.90;;;;;;;21.80;36.44;98484.88;5111228;28;20389;-93
2022/04/26 14:47:58;;;;;;;7.28;3.13;;;;;;;21.46;37.38;98482.91;5110602;28;20398;-92
2022/04/26 14:50:26;;;;;;;5.30;3.28;;;;;;;21.56;37.03;98483.09;5112794;28;20044;-93
2022/04/26 14:52:53;;;;;;;5.15;2.80;;;;;;;21.99;36.69;98478.88;5110483;28;20115;-92
2022/04/26 14:55:19;;;;;;;7.10;2.80;;;;;;;22.25;35.97;98472.31;5110491;28;20047;-92
2022/04/26 14:57:46;;;;;;;4.95;3.10;;;;;;;22.32;36.25;98470.81;5110564;28;20036;-93
2022/04/26 15:00:13;;;;;;;5.70;2.90;;;;;;;22.05;36.58;98481.09;5111244;28;20040;-94
2022/04/26 15:02:38;;;;;;;6.47;3.13;;;;;;;22.07;36.81;98481.84;5111755;28;20528;-92
2022/04/26 15:05:07;;;;;;;6.68;3.22;;;;;;;22.08;35.54;98481.72;5111347;28;20039;-91
2022/04/26 15:09:42;;;;;;;;;;;;;;;22.05;35.42;98495.50;5111774;28;20051;-92
2022/04/26 15:10:19;;;;;;;7.05;3.00;;;;;;;22.06;36.63;98463.88;5110019;28;19938;-92
2022/04/26 15:18:51;;;;;;;5.88;3.22;;;;;;;22.04;35.88;98482.09;5140171;27;20614;-94
2022/04/26 15:21:18;;;;;;;5.43;2.80;;;;;;;21.57;36.89;98470.41;5111179;28;20044;-93
2022/04/26 15:23:44;;;;;;;4.82;2.90;;;;;;;21.24;37.08;98488.22;5114745;28;20032;-92
2022/04/26 15:26:11;;;;;;;6.20;3.20;;;;;;;20.58;38.56;98493.97;5111099;28;20044;-94
2022/04/26 15:28:38;;;;;;;6.75;3.00;;;;;;;20.19;38.73;98493.09;5111059;28;20054;-92
2022/04/26 15:31:05;;;;;;;6.22;2.80;;;;;;;20.04;39.92;98472.59;5111075;28;20389;-93
2022/04/26 15:33:31;;;;;;;5.38;2.58;;;;;;;19.93;39.45;98489.56;5111644;28;20570;-93
2022/04/26 15:35:58;;;;;;;4.05;2.60;;;;;;;19.90;39.25;98474.41;5111058;28;20048;-91
2022/04/26 15:38:27;;;;;;;3.72;2.42;;;;;;;20.02;38.85;98490.75;5110431;28;20036;-92
2022/04/26 15:40:54;;;;;;;4.75;2.70;;;;;;;19.70;40.42;98481.19;5110932;28;20036;-92
2022/04/26 15:43:20;;;;;;;7.18;2.90;;;;;;;19.56;39.95;98478.56;5111095;28;20040;-92